sensor_id;sensor_type;location;lat;lon;timestamp;pressure;altitude;pressure_sealevel;temperature;humidity
33554;BME280;19885;42.208;24.952;2023-04-03T00:03:56;99205.66;;;10.91;67.91
33554;BME280;19885;42.208;24.952;2023-04-03T04:06:28;99194.69;;;7.44;77.39
33554;BME280;19885;42.208;24.952;2023-04-03T04:08:53;99212.81;;;7.39;75.78
33554;BME280;19885;42.208;24.952;2023-04-03T04:11:19;99229.47;;;6.78;78.42
33554;BME280;19885;42.208;24.952;2023-04-03T04:13:45;99228.16;;;6.43;79.60
33554;BME280;19885;42.208;24.952;2023-04-03T04:16:11;99234.97;;;6.36;81.17
33554;BME280;19885;42.208;24.952;2023-04-03T04:18:36;99234.13;;;6.36;80.62
33554;BME280;19885;42.208;24.952;2023-04-03T04:21:02;99233.81;;;6.84;78.84
33554;BME280;19885;42.208;24.952;2023-04-03T04:23:28;99245.56;;;6.52;80.01
33554;BME280;19885;42.208;24.952;2023-04-03T04:25:56;99252.59;;;6.63;81.41
33554;BME280;19885;42.208;24.952;2023-04-03T04:28:22;99256.44;;;6.97;80.06
33554;BME280;19885;42.208;24.952;2023-04-03T04:30:48;99251.84;;;6.73;80.55
33554;BME280;19885;42.208;24.952;2023-04-03T04:33:14;99249.69;;;7.12;80.59
33554;BME280;19885;42.208;24.952;2023-04-03T04:35:42;99258.34;;;7.14;80.51
33554;BME280;19885;42.208;24.952;2023-04-03T04:38:09;99262.97;;;6.66;83.36
33554;BME280;19885;42.208;24.952;2023-04-03T04:40:35;99268.41;;;6.87;83.07
33554;BME280;19885;42.208;24.952;2023-04-03T04:43:03;99258.78;;;6.74;84.34
33554;BME280;19885;42.208;24.952;2023-04-03T04:45:29;99256.34;;;6.91;83.92
33554;BME280;19885;42.208;24.952;2023-04-03T04:47:57;99254.44;;;7.56;82.29
33554;BME280;19885;42.208;24.952;2023-04-03T04:50:23;99259.00;;;7.88;78.92
33554;BME280;19885;42.208;24.952;2023-04-03T04:52:48;99246.19;;;8.08;78.08
33554;BME280;19885;42.208;24.952;2023-04-03T04:55:14;99255.88;;;8.36;77.22
33554;BME280;19885;42.208;24.952;2023-04-03T04:57:40;99248.19;;;8.51;75.67
33554;BME280;19885;42.208;24.952;2023-04-03T05:00:06;99250.84;;;8.60;74.80
33554;BME280;19885;42.208;24.952;2023-04-03T05:02:32;99227.50;;;8.73;73.80
33554;BME280;19885;42.208;24.952;2023-04-03T05:04:58;99263.16;;;9.13;73.25
33554;BME280;19885;42.208;24.952;2023-04-03T05:07:25;99270.13;;;9.35;73.08
33554;BME280;19885;42.208;24.952;2023-04-03T05:09:51;99258.88;;;9.48;72.90
33554;BME280;19885;42.208;24.952;2023-04-03T05:12:16;99253.66;;;9.45;75.52
33554;BME280;19885;42.208;24.952;2023-04-03T05:14:42;99258.03;;;9.58;72.56
33554;BME280;19885;42.208;24.952;2023-04-03T05:17:08;99256.28;;;9.62;73.18
33554;BME280;19885;42.208;24.952;2023-04-03T05:19:33;99264.09;;;9.87;71.23
33554;BME280;19885;42.208;24.952;2023-04-03T05:21:59;99252.78;;;10.00;70.73
33554;BME280;19885;42.208;24.952;2023-04-03T05:24:24;99238.91;;;9.98;71.11
33554;BME280;19885;42.208;24.952;2023-04-03T05:26:51;99267.53;;;10.04;71.93
33554;BME280;19885;42.208;24.952;2023-04-03T05:29:17;99271.00;;;10.00;73.22
33554;BME280;19885;42.208;24.952;2023-04-03T05:31:43;99281.41;;;10.06;72.47
33554;BME280;19885;42.208;24.952;2023-04-03T05:34:09;99289.28;;;10.13;72.51
33554;BME280;19885;42.208;24.952;2023-04-03T05:36:35;99289.25;;;10.11;72.68
33554;BME280;19885;42.208;24.952;2023-04-03T05:39:00;99281.44;;;10.16;72.75
33554;BME280;19885;42.208;24.952;2023-04-03T05:41:26;99212.91;;;9.68;73.32
33554;BME280;19885;42.208;24.952;2023-04-03T05:43:51;99266.66;;;10.22;73.25
33554;BME280;19885;42.208;24.952;2023-04-03T05:46:18;99295.28;;;10.51;72.96
33554;BME280;19885;42.208;24.952;2023-04-03T05:48:48;99302.25;;;10.44;72.51
33554;BME280;19885;42.208;24.952;2023-04-03T05:51:22;99308.28;;;10.55;72.08
33554;BME280;19885;42.208;24.952;2023-04-03T05:53:52;99298.69;;;10.68;71.64
33554;BME280;19885;42.208;24.952;2023-04-03T05:56:20;99295.19;;;10.81;70.74
33554;BME280;19885;42.208;24.952;2023-04-03T05:58:45;99294.28;;;10.94;72.99
33554;BME280;19885;42.208;24.952;2023-04-03T06:01:11;99304.59;;;11.17;70.79
33554;BME280;19885;42.208;24.952;2023-04-03T06:03:36;99283.69;;;11.20;71.51
33554;BME280;19885;42.208;24.952;2023-04-03T06:06:03;99231.66;;;11.00;71.11
33554;BME280;19885;42.208;24.952;2023-04-03T06:08:29;99256.69;;;11.33;69.74
33554;BME280;19885;42.208;24.952;2023-04-03T06:10:55;99288.69;;;11.61;70.00
33554;BME280;19885;42.208;24.952;2023-04-03T06:13:21;99294.50;;;11.99;69.48
33554;BME280;19885;42.208;24.952;2023-04-03T06:15:47;99283.97;;;12.09;69.43
33554;BME280;19885;42.208;24.952;2023-04-03T06:18:13;99282.16;;;12.19;68.32
33554;BME280;19885;42.208;24.952;2023-04-03T06:20:39;99288.19;;;12.26;68.06
33554;BME280;19885;42.208;24.952;2023-04-03T06:23:04;99300.19;;;12.43;68.23
33554;BME280;19885;42.208;24.952;2023-04-03T06:25:30;99305.25;;;12.60;68.17
33554;BME280;19885;42.208;24.952;2023-04-03T06:27:57;99288.63;;;12.65;66.96
33554;BME280;19885;42.208;24.952;2023-04-03T06:30:24;99297.13;;;12.84;67.23
33554;BME280;19885;42.208;24.952;2023-04-03T06:32:50;99302.25;;;12.95;68.17
33554;BME280;19885;42.208;24.952;2023-04-03T06:35:17;99286.63;;;12.90;64.99
33554;BME280;19885;42.208;24.952;2023-04-03T06:37:42;99294.28;;;13.02;66.04
33554;BME280;19885;42.208;24.952;2023-04-03T06:40:18;99286.34;;;13.13;64.46
33554;BME280;19885;42.208;24.952;2023-04-03T06:42:46;99287.94;;;13.23;65.88
33554;BME280;19885;42.208;24.952;2023-04-03T06:45:11;99278.28;;;13.28;65.15
33554;BME280;19885;42.208;24.952;2023-04-03T06:47:37;99273.00;;;13.32;63.18
33554;BME280;19885;42.208;24.952;2023-04-03T06:50:04;99278.84;;;13.49;62.24
33554;BME280;19885;42.208;24.952;2023-04-03T06:52:31;99285.50;;;13.70;61.30
33554;BME280;19885;42.208;24.952;2023-04-03T06:54:57;99306.19;;;13.88;63.76
33554;BME280;19885;42.208;24.952;2023-04-03T06:57:25;99304.16;;;14.05;60.20
33554;BME280;19885;42.208;24.952;2023-04-03T06:59:50;99298.53;;;14.29;60.87
33554;BME280;19885;42.208;24.952;2023-04-03T07:02:16;99301.84;;;14.41;58.79
33554;BME280;19885;42.208;24.952;2023-04-03T07:04:42;99296.41;;;14.50;59.82
33554;BME280;19885;42.208;24.952;2023-04-03T07:07:07;99309.22;;;14.66;57.95
33554;BME280;19885;42.208;24.952;2023-04-03T07:09:33;99310.84;;;14.73;57.60
33554;BME280;19885;42.208;24.952;2023-04-03T07:11:59;99258.69;;;14.58;58.90
33554;BME280;19885;42.208;24.952;2023-04-03T07:14:25;99319.38;;;14.84;57.57
33554;BME280;19885;42.208;24.952;2023-04-03T07:16:50;99322.88;;;14.83;57.52
33554;BME280;19885;42.208;24.952;2023-04-03T07:19:16;99314.69;;;15.00;56.84
33554;BME280;19885;42.208;24.952;2023-04-03T07:21:43;99317.06;;;15.12;56.55
33554;BME280;19885;42.208;24.952;2023-04-03T07:24:09;99322.31;;;15.11;54.57
33554;BME280;19885;42.208;24.952;2023-04-03T07:26:35;99319.69;;;15.12;56.66
33554;BME280;19885;42.208;24.952;2023-04-03T07:29:01;99303.56;;;15.29;55.93
33554;BME280;19885;42.208;24.952;2023-04-03T07:31:27;99294.25;;;15.16;52.97
33554;BME280;19885;42.208;24.952;2023-04-03T07:33:52;99292.91;;;14.96;54.47
33554;BME280;19885;42.208;24.952;2023-04-03T07:36:20;99298.78;;;14.65;55.22
33554;BME280;19885;42.208;24.952;2023-04-03T07:38:46;99312.78;;;15.08;55.94
33554;BME280;19885;42.208;24.952;2023-04-03T07:41:17;99296.75;;;15.20;56.00
33554;BME280;19885;42.208;24.952;2023-04-03T07:43:44;99306.72;;;15.05;56.20
33554;BME280;19885;42.208;24.952;2023-04-03T07:46:10;99309.34;;;15.05;55.27
33554;BME280;19885;42.208;24.952;2023-04-03T07:48:36;99296.09;;;15.11;55.22
33554;BME280;19885;42.208;24.952;2023-04-03T07:51:03;99303.84;;;14.74;55.50
33554;BME280;19885;42.208;24.952;2023-04-03T07:53:29;99310.19;;;14.61;56.05
33554;BME280;19885;42.208;24.952;2023-04-03T07:55:56;99273.00;;;14.42;57.35
33554;BME280;19885;42.208;24.952;2023-04-03T07:58:22;99286.22;;;14.35;57.34
33554;BME280;19885;42.208;24.952;2023-04-03T08:00:48;99224.53;;;14.14;56.11
33554;BME280;19885;42.208;24.952;2023-04-03T08:03:14;99294.00;;;14.39;56.29
33554;BME280;19885;42.208;24.952;2023-04-03T08:05:43;99295.03;;;14.31;58.46
33554;BME280;19885;42.208;24.952;2023-04-03T08:08:14;99289.72;;;14.34;58.85
33554;BME280;19885;42.208;24.952;2023-04-03T08:10:40;99290.47;;;14.40;58.70
33554;BME280;19885;42.208;24.952;2023-04-03T08:13:06;99283.63;;;14.79;57.60
33554;BME280;19885;42.208;24.952;2023-04-03T08:15:32;99274.94;;;15.18;56.66
33554;BME280;19885;42.208;24.952;2023-04-03T08:17:59;99270.50;;;14.80;56.58
33554;BME280;19885;42.208;24.952;2023-04-03T08:20:26;99249.22;;;14.94;55.17
33554;BME280;19885;42.208;24.952;2023-04-03T08:22:52;99254.56;;;14.88;56.05
33554;BME280;19885;42.208;24.952;2023-04-03T08:25:18;99249.22;;;14.92;54.71
33554;BME280;19885;42.208;24.952;2023-04-03T08:27:44;99253.38;;;15.04;56.48
33554;BME280;19885;42.208;24.952;2023-04-03T08:30:10;99256.50;;;15.21;55.72
33554;BME280;19885;42.208;24.952;2023-04-03T08:32:36;99241.44;;;15.29;55.30
33554;BME280;19885;42.208;24.952;2023-04-03T08:35:03;99240.59;;;15.27;55.05
33554;BME280;19885;42.208;24.952;2023-04-03T08:37:29;99269.69;;;15.18;54.16
33554;BME280;19885;42.208;24.952;2023-04-03T08:39:54;99253.41;;;15.02;54.29
33554;BME280;19885;42.208;24.952;2023-04-03T08:42:38;99249.50;;;15.20;54.59
33554;BME280;19885;42.208;24.952;2023-04-03T08:45:22;99249.09;;;15.38;54.52
33554;BME280;19885;42.208;24.952;2023-04-03T08:48:06;99176.84;;;14.84;54.76
33554;BME280;19885;42.208;24.952;2023-04-03T08:50:47;99227.25;;;14.98;53.69
33554;BME280;19885;42.208;24.952;2023-04-03T08:53:29;99233.41;;;14.97;55.71
33554;BME280;19885;42.208;24.952;2023-04-03T08:55:58;99233.25;;;15.05;54.45
33554;BME280;19885;42.208;24.952;2023-04-03T08:58:26;99225.22;;;15.12;52.55
33554;BME280;19885;42.208;24.952;2023-04-03T09:01:05;99231.63;;;14.97;54.04
33554;BME280;19885;42.208;24.952;2023-04-03T09:03:40;99222.16;;;14.92;53.65
33554;BME280;19885;42.208;24.952;2023-04-03T09:06:27;99216.38;;;15.16;54.05
33554;BME280;19885;42.208;24.952;2023-04-03T09:17:31;99223.78;;;15.36;52.95
33554;BME280;19885;42.208;24.952;2023-04-03T09:22:50;99222.66;;;15.47;54.57
33554;BME280;19885;42.208;24.952;2023-04-03T09:25:54;99197.94;;;15.57;55.65
33554;BME280;19885;42.208;24.952;2023-04-03T09:28:13;99221.41;;;15.63;55.93
33554;BME280;19885;42.208;24.952;2023-04-03T09:30:38;99207.78;;;15.48;53.97
33554;BME280;19885;42.208;24.952;2023-04-03T09:33:04;99225.88;;;15.20;53.32
33554;BME280;19885;42.208;24.952;2023-04-03T09:35:32;99214.72;;;15.12;55.29
33554;BME280;19885;42.208;24.952;2023-04-03T09:42:52;99214.28;;;14.90;54.09
33554;BME280;19885;42.208;24.952;2023-04-03T09:45:25;99218.13;;;14.76;55.08
33554;BME280;19885;42.208;24.952;2023-04-03T09:48:23;99207.19;;;14.56;56.32
33554;BME280;19885;42.208;24.952;2023-04-03T09:50:57;99215.94;;;14.55;57.60
33554;BME280;19885;42.208;24.952;2023-04-03T09:53:43;99213.34;;;14.52;56.86
33554;BME280;19885;42.208;24.952;2023-04-03T09:58:43;99211.34;;;14.18;61.24
33554;BME280;19885;42.208;24.952;2023-04-03T10:01:31;99206.06;;;14.21;60.75
33554;BME280;19885;42.208;24.952;2023-04-03T10:04:17;99206.22;;;14.12;61.59
33554;BME280;19885;42.208;24.952;2023-04-03T10:06:49;99183.81;;;13.96;63.33
33554;BME280;19885;42.208;24.952;2023-04-03T10:09:30;99200.56;;;13.88;64.78
33554;BME280;19885;42.208;24.952;2023-04-03T10:12:09;99196.25;;;13.85;67.02
33554;BME280;19885;42.208;24.952;2023-04-03T10:14:59;99205.88;;;13.83;65.96
33554;BME280;19885;42.208;24.952;2023-04-03T10:17:56;99202.25;;;13.90;69.00
33554;BME280;19885;42.208;24.952;2023-04-03T10:23:21;99142.59;;;13.57;70.00
33554;BME280;19885;42.208;24.952;2023-04-03T10:30:53;99204.88;;;13.90;68.07
33554;BME280;19885;42.208;24.952;2023-04-03T10:44:03;99188.09;;;14.00;66.46
33554;BME280;19885;42.208;24.952;2023-04-03T10:46:43;99183.91;;;13.90;67.39
33554;BME280;19885;42.208;24.952;2023-04-03T10:52:22;99188.47;;;14.26;64.59
33554;BME280;19885;42.208;24.952;2023-04-03T10:57:32;99205.56;;;14.49;62.76
33554;BME280;19885;42.208;24.952;2023-04-03T11:00:04;99207.34;;;14.47;62.65
33554;BME280;19885;42.208;24.952;2023-04-03T11:02:57;99193.78;;;14.23;63.85
33554;BME280;19885;42.208;24.952;2023-04-03T11:05:37;99079.66;;;13.63;64.34
33554;BME280;19885;42.208;24.952;2023-04-03T11:16:21;99189.88;;;14.46;64.32
33554;BME280;19885;42.208;24.952;2023-04-03T11:18:59;99205.38;;;14.58;64.73
33554;BME280;19885;42.208;24.952;2023-04-03T11:21:43;99200.59;;;14.78;67.38
33554;BME280;19885;42.208;24.952;2023-04-03T11:24:24;99206.53;;;14.86;67.23
33554;BME280;19885;42.208;24.952;2023-04-03T11:26:51;99204.81;;;14.85;68.43
33554;BME280;19885;42.208;24.952;2023-04-03T11:29:22;99198.94;;;14.74;67.90
33554;BME280;19885;42.208;24.952;2023-04-03T11:32:12;99204.47;;;14.60;68.00
33554;BME280;19885;42.208;24.952;2023-04-03T11:34:46;99210.72;;;14.52;71.50
33554;BME280;19885;42.208;24.952;2023-04-03T11:37:35;99189.47;;;14.67;71.30
33554;BME280;19885;42.208;24.952;2023-04-03T11:43:02;99174.97;;;14.48;72.82
33554;BME280;19885;42.208;24.952;2023-04-03T11:45:37;99182.81;;;14.51;72.05
33554;BME280;19885;42.208;24.952;2023-04-03T11:51:01;99182.28;;;14.32;73.51
33554;BME280;19885;42.208;24.952;2023-04-03T11:56:06;99166.97;;;14.09;76.77
33554;BME280;19885;42.208;24.952;2023-04-03T12:04:17;99171.22;;;14.16;80.08
33554;BME280;19885;42.208;24.952;2023-04-03T12:09:24;99165.84;;;14.22;82.99
33554;BME280;19885;42.208;24.952;2023-04-03T12:11:52;99160.88;;;14.09;84.12
33554;BME280;19885;42.208;24.952;2023-04-03T12:14:18;99167.09;;;14.03;84.92
33554;BME280;19885;42.208;24.952;2023-04-03T12:16:50;99102.22;;;13.72;86.34
33554;BME280;19885;42.208;24.952;2023-04-03T12:24:29;99131.81;;;13.75;88.96
33554;BME280;19885;42.208;24.952;2023-04-03T12:27:05;99157.38;;;14.10;89.43
33554;BME280;19885;42.208;24.952;2023-04-03T12:29:39;99131.44;;;13.96;90.69
33554;BME280;19885;42.208;24.952;2023-04-03T12:45:48;99089.16;;;13.69;94.35
33554;BME280;19885;42.208;24.952;2023-04-03T12:48:18;99118.91;;;14.12;93.60
33554;BME280;19885;42.208;24.952;2023-04-03T12:50:49;99126.44;;;14.30;92.62
33554;BME280;19885;42.208;24.952;2023-04-03T12:53:22;99119.00;;;14.50;92.59
33554;BME280;19885;42.208;24.952;2023-04-03T12:55:57;99124.06;;;14.59;92.72
33554;BME280;19885;42.208;24.952;2023-04-03T12:58:31;99090.22;;;14.49;90.24
33554;BME280;19885;42.208;24.952;2023-04-03T13:01:14;99108.13;;;14.68;90.01
33554;BME280;19885;42.208;24.952;2023-04-03T13:03:48;99102.22;;;14.59;90.25
33554;BME280;19885;42.208;24.952;2023-04-03T13:06:49;99097.69;;;14.65;89.36
33554;BME280;19885;42.208;24.952;2023-04-03T13:09:26;99114.69;;;14.87;89.90
33554;BME280;19885;42.208;24.952;2023-04-03T13:12:14;99104.09;;;14.90;89.13
33554;BME280;19885;42.208;24.952;2023-04-03T13:14:48;99068.81;;;14.67;87.92
33554;BME280;19885;42.208;24.952;2023-04-03T13:17:16;99080.00;;;14.75;87.96
33554;BME280;19885;42.208;24.952;2023-04-03T13:19:44;99088.56;;;14.81;88.25
33554;BME280;19885;42.208;24.952;2023-04-03T13:22:39;99102.41;;;14.88;87.80
33554;BME280;19885;42.208;24.952;2023-04-03T13:25:11;99092.03;;;14.83;88.54
33554;BME280;19885;42.208;24.952;2023-04-03T13:27:39;99085.94;;;14.83;88.50
33554;BME280;19885;42.208;24.952;2023-04-03T13:30:22;99094.59;;;14.86;88.52
33554;BME280;19885;42.208;24.952;2023-04-03T13:32:48;99096.44;;;14.83;88.17
33554;BME280;19885;42.208;24.952;2023-04-03T13:37:57;99082.50;;;14.81;88.28
33554;BME280;19885;42.208;24.952;2023-04-03T13:40:23;99079.81;;;14.82;89.05
33554;BME280;19885;42.208;24.952;2023-04-03T13:42:59;99070.25;;;14.80;89.11
33554;BME280;19885;42.208;24.952;2023-04-03T13:45:27;99066.75;;;14.81;89.85
33554;BME280;19885;42.208;24.952;2023-04-03T13:48:17;99060.44;;;14.89;88.79
33554;BME280;19885;42.208;24.952;2023-04-03T13:53:56;99058.78;;;14.84;89.69
33554;BME280;19885;42.208;24.952;2023-04-03T13:56:38;99050.16;;;14.80;91.25
33554;BME280;19885;42.208;24.952;2023-04-03T14:06:41;99051.09;;;14.78;92.85
33554;BME280;19885;42.208;24.952;2023-04-03T14:09:07;99027.63;;;14.72;92.93
33554;BME280;19885;42.208;24.952;2023-04-03T14:11:34;99023.22;;;14.74;92.50
33554;BME280;19885;42.208;24.952;2023-04-03T14:14:03;99031.91;;;14.76;94.07
33554;BME280;19885;42.208;24.952;2023-04-03T14:16:32;99003.47;;;14.58;95.15
33554;BME280;19885;42.208;24.952;2023-04-03T14:19:02;98993.94;;;14.55;95.73
33554;BME280;19885;42.208;24.952;2023-04-03T14:21:28;99002.19;;;14.75;95.33
33554;BME280;19885;42.208;24.952;2023-04-03T14:23:54;98953.19;;;14.41;95.14
33554;BME280;19885;42.208;24.952;2023-04-03T14:26:22;99002.03;;;14.81;96.17
33554;BME280;19885;42.208;24.952;2023-04-03T14:28:53;98983.16;;;14.66;96.03
33554;BME280;19885;42.208;24.952;2023-04-03T14:31:21;99004.84;;;14.74;94.24
33554;BME280;19885;42.208;24.952;2023-04-03T14:33:47;98943.84;;;14.31;92.81
33554;BME280;19885;42.208;24.952;2023-04-03T14:36:25;98988.72;;;14.54;90.48
33554;BME280;19885;42.208;24.952;2023-04-03T14:38:53;99000.81;;;14.59;89.32
33554;BME280;19885;42.208;24.952;2023-04-03T14:41:22;99002.78;;;14.51;90.56
33554;BME280;19885;42.208;24.952;2023-04-03T14:43:49;99004.66;;;14.45;90.62
33554;BME280;19885;42.208;24.952;2023-04-03T14:46:26;99010.19;;;14.31;90.61
33554;BME280;19885;42.208;24.952;2023-04-03T14:48:54;99023.44;;;14.23;92.08
33554;BME280;19885;42.208;24.952;2023-04-03T14:51:19;99012.97;;;14.22;93.52
33554;BME280;19885;42.208;24.952;2023-04-03T14:53:45;99016.50;;;14.21;93.42
33554;BME280;19885;42.208;24.952;2023-04-03T14:56:19;99008.50;;;14.28;92.38
33554;BME280;19885;42.208;24.952;2023-04-03T14:58:47;99012.88;;;14.28;92.43
33554;BME280;19885;42.208;24.952;2023-04-03T15:01:16;99007.63;;;14.26;92.31
33554;BME280;19885;42.208;24.952;2023-04-03T15:03:42;99008.56;;;14.25;94.02
33554;BME280;19885;42.208;24.952;2023-04-03T15:06:12;98993.81;;;14.20;95.32
33554;BME280;19885;42.208;24.952;2023-04-03T15:08:38;98992.31;;;14.10;95.04
33554;BME280;19885;42.208;24.952;2023-04-03T15:11:04;98988.88;;;14.06;96.96
33554;BME280;19885;42.208;24.952;2023-04-03T15:13:30;98955.50;;;13.76;98.15
33554;BME280;19885;42.208;24.952;2023-04-03T15:15:55;98943.41;;;13.69;98.47
33554;BME280;19885;42.208;24.952;2023-04-03T15:18:26;98939.84;;;13.73;97.59
33554;BME280;19885;42.208;24.952;2023-04-03T15:20:53;98988.13;;;14.01;98.35
33554;BME280;19885;42.208;24.952;2023-04-03T15:23:19;98982.91;;;14.00;97.76
33554;BME280;19885;42.208;24.952;2023-04-03T15:25:46;98955.34;;;13.82;96.35
33554;BME280;19885;42.208;24.952;2023-04-03T15:28:23;98969.06;;;13.93;97.15
33554;BME280;19885;42.208;24.952;2023-04-03T15:30:52;98950.16;;;13.81;97.84
33554;BME280;19885;42.208;24.952;2023-04-03T15:33:17;98937.06;;;13.81;99.04
33554;BME280;19885;42.208;24.952;2023-04-03T15:35:43;98922.47;;;13.69;99.93
33554;BME280;19885;42.208;24.952;2023-04-03T15:38:09;98937.34;;;13.67;99.45
33554;BME280;19885;42.208;24.952;2023-04-03T15:40:35;98929.59;;;13.63;100.00
33554;BME280;19885;42.208;24.952;2023-04-03T15:43:00;98928.81;;;13.57;99.13
33554;BME280;19885;42.208;24.952;2023-04-03T15:45:28;98914.09;;;13.52;100.00
33554;BME280;19885;42.208;24.952;2023-04-03T15:47:54;98922.22;;;13.40;100.00
33554;BME280;19885;42.208;24.952;2023-04-03T15:50:20;98929.00;;;13.03;100.00
33554;BME280;19885;42.208;24.952;2023-04-03T15:52:48;98839.59;;;12.35;100.00
33554;BME280;19885;42.208;24.952;2023-04-03T15:55:16;98903.00;;;12.94;100.00
33554;BME280;19885;42.208;24.952;2023-04-03T15:57:42;98832.63;;;12.83;100.00
33554;BME280;19885;42.208;24.952;2023-04-03T16:00:08;98889.31;;;13.27;100.00
33554;BME280;19885;42.208;24.952;2023-04-03T16:02:34;98870.22;;;13.23;100.00
33554;BME280;19885;42.208;24.952;2023-04-03T16:04:59;98871.78;;;13.32;100.00
33554;BME280;19885;42.208;24.952;2023-04-03T16:07:25;98880.41;;;13.37;100.00
33554;BME280;19885;42.208;24.952;2023-04-03T16:09:52;98871.97;;;13.23;100.00
33554;BME280;19885;42.208;24.952;2023-04-03T16:12:17;98889.13;;;13.37;100.00
33554;BME280;19885;42.208;24.952;2023-04-03T16:14:42;98879.84;;;13.20;100.00
33554;BME280;19885;42.208;24.952;2023-04-03T16:17:08;98886.59;;;13.33;100.00
33554;BME280;19885;42.208;24.952;2023-04-03T16:19:34;98882.03;;;13.41;100.00
33554;BME280;19885;42.208;24.952;2023-04-03T16:22:00;98885.16;;;13.17;100.00
33554;BME280;19885;42.208;24.952;2023-04-03T16:24:25;98875.81;;;13.05;100.00
33554;BME280;19885;42.208;24.952;2023-04-03T16:26:51;98857.16;;;12.74;100.00
33554;BME280;19885;42.208;24.952;2023-04-03T16:29:18;98881.50;;;12.78;100.00
33554;BME280;19885;42.208;24.952;2023-04-03T16:31:44;98858.13;;;13.16;100.00
33554;BME280;19885;42.208;24.952;2023-04-03T16:34:09;98855.28;;;13.27;100.00
33554;BME280;19885;42.208;24.952;2023-04-03T16:36:35;98824.38;;;13.06;100.00
33554;BME280;19885;42.208;24.952;2023-04-03T16:39:03;98824.31;;;13.07;100.00
33554;BME280;19885;42.208;24.952;2023-04-03T16:41:28;98800.97;;;12.97;100.00
33554;BME280;19885;42.208;24.952;2023-04-03T16:43:54;98746.84;;;12.57;100.00
33554;BME280;19885;42.208;24.952;2023-04-03T16:46:19;98733.19;;;12.43;100.00
33554;BME280;19885;42.208;24.952;2023-04-03T16:48:45;98774.41;;;12.73;100.00
33554;BME280;19885;42.208;24.952;2023-04-03T16:51:12;98776.38;;;12.62;100.00
33554;BME280;19885;42.208;24.952;2023-04-03T16:53:37;98768.53;;;12.62;100.00
33554;BME280;19885;42.208;24.952;2023-04-03T16:56:03;98767.88;;;12.51;100.00
33554;BME280;19885;42.208;24.952;2023-04-03T16:58:29;98756.38;;;12.60;100.00
33554;BME280;19885;42.208;24.952;2023-04-03T17:00:54;98774.06;;;12.46;100.00
33554;BME280;19885;42.208;24.952;2023-04-03T17:03:21;98770.47;;;12.53;100.00
33554;BME280;19885;42.208;24.952;2023-04-03T17:05:48;98772.41;;;12.42;100.00
33554;BME280;19885;42.208;24.952;2023-04-03T17:08:15;98787.75;;;12.11;100.00
33554;BME280;19885;42.208;24.952;2023-04-03T17:10:41;98770.31;;;12.13;100.00
33554;BME280;19885;42.208;24.952;2023-04-03T17:13:07;98777.06;;;12.26;100.00
33554;BME280;19885;42.208;24.952;2023-04-03T17:15:33;98752.19;;;12.04;100.00
33554;BME280;19885;42.208;24.952;2023-04-03T17:18:00;98769.41;;;12.15;100.00
33554;BME280;19885;42.208;24.952;2023-04-03T17:20:26;98752.88;;;12.15;100.00
33554;BME280;19885;42.208;24.952;2023-04-03T17:22:52;98749.38;;;12.16;100.00
33554;BME280;19885;42.208;24.952;2023-04-03T17:25:19;98750.63;;;11.94;100.00
33554;BME280;19885;42.208;24.952;2023-04-03T17:27:45;98770.53;;;12.01;100.00
33554;BME280;19885;42.208;24.952;2023-04-03T17:30:10;98745.22;;;12.06;100.00
33554;BME280;19885;42.208;24.952;2023-04-03T17:32:36;98744.34;;;12.04;100.00
33554;BME280;19885;42.208;24.952;2023-04-03T17:35:02;98754.16;;;11.91;100.00
33554;BME280;19885;42.208;24.952;2023-04-03T17:37:28;98706.63;;;11.73;100.00
33554;BME280;19885;42.208;24.952;2023-04-03T17:39:54;98732.16;;;12.06;100.00
33554;BME280;19885;42.208;24.952;2023-04-03T17:42:20;98734.72;;;12.07;100.00
33554;BME280;19885;42.208;24.952;2023-04-03T17:44:46;98749.69;;;11.98;100.00
33554;BME280;19885;42.208;24.952;2023-04-03T17:47:11;98746.59;;;11.75;100.00
33554;BME280;19885;42.208;24.952;2023-04-03T17:49:37;98717.81;;;11.81;100.00
33554;BME280;19885;42.208;24.952;2023-04-03T17:52:03;98681.47;;;11.69;100.00
33554;BME280;19885;42.208;24.952;2023-04-03T17:54:28;98690.97;;;11.73;100.00
33554;BME280;19885;42.208;24.952;2023-04-03T17:56:53;98687.47;;;11.74;100.00
33554;BME280;19885;42.208;24.952;2023-04-03T17:59:19;98683.25;;;11.65;100.00
33554;BME280;19885;42.208;24.952;2023-04-03T18:01:45;98686.72;;;11.67;100.00
33554;BME280;19885;42.208;24.952;2023-04-03T18:04:12;98650.38;;;11.54;100.00
33554;BME280;19885;42.208;24.952;2023-04-03T18:06:41;98665.91;;;11.63;100.00
33554;BME280;19885;42.208;24.952;2023-04-03T18:09:32;98642.66;;;11.47;100.00
33554;BME280;19885;42.208;24.952;2023-04-03T18:12:01;98659.13;;;11.51;100.00
33554;BME280;19885;42.208;24.952;2023-04-03T18:14:27;98664.47;;;11.43;100.00
33554;BME280;19885;42.208;24.952;2023-04-03T18:16:54;98672.88;;;11.59;100.00
33554;BME280;19885;42.208;24.952;2023-04-03T18:19:22;98665.09;;;11.58;100.00
33554;BME280;19885;42.208;24.952;2023-04-03T18:21:54;98651.31;;;11.49;100.00
33554;BME280;19885;42.208;24.952;2023-04-03T18:24:21;98668.44;;;11.66;100.00
33554;BME280;19885;42.208;24.952;2023-04-03T18:26:51;98671.19;;;11.58;100.00
33554;BME280;19885;42.208;24.952;2023-04-03T18:29:18;98688.78;;;11.47;100.00
33554;BME280;19885;42.208;24.952;2023-04-03T18:31:47;98692.22;;;11.47;100.00
33554;BME280;19885;42.208;24.952;2023-04-03T18:34:13;98714.88;;;11.44;100.00
33554;BME280;19885;42.208;24.952;2023-04-03T18:36:39;98728.75;;;11.46;100.00
33554;BME280;19885;42.208;24.952;2023-04-03T18:39:05;98746.94;;;11.51;100.00
33554;BME280;19885;42.208;24.952;2023-04-03T18:41:34;98730.72;;;11.32;100.00